Time;durP1;ratioP1;P1;durP2;ratioP2;P2;SDS_P1;SDS_P2;PMS_P1;PMS_P2;Temp;Humidity;BMP_temperature;BMP_pressure;BME280_temperature;BME280_humidity;BME280_pressure;Samples;Min_cycle;Max_cycle;Signal;HPM_P1;HPM_P2
2023/12/25 00:02:14;;;;;;;5.03;4.73;;;11.30;99.90;;;;;;4987251;28;20432;-62
2023/12/25 00:04:41;;;;;;;4.70;4.40;;;11.30;99.90;;;;;;4983757;28;20297;-62
2023/12/25 00:07:10;;;;;;;4.93;4.60;;;11.30;99.90;;;;;;4992511;28;20236;-62
2023/12/25 00:09:37;;;;;;;4.97;4.47;;;11.30;99.90;;;;;;4992326;28;20623;-63
2023/12/25 00:12:04;;;;;;;5.20;4.73;;;11.30;99.90;;;;;;4988076;28;20191;-60
2023/12/25 00:14:31;;;;;;;4.60;4.20;;;11.30;99.90;;;;;;4985784;28;20202;-60
2023/12/25 00:16:58;;;;;;;4.30;3.90;;;11.30;99.90;;;;;;4985832;28;20232;-59
2023/12/25 00:19:26;;;;;;;4.20;3.90;;;11.30;99.90;;;;;;4984611;28;20200;-59
2023/12/25 00:21:54;;;;;;;4.93;3.50;;;11.30;99.90;;;;;;4989996;28;20201;-60
2023/12/25 00:24:20;;;;;;;3.60;3.40;;;11.30;99.90;;;;;;4988008;28;20268;-59
2023/12/25 00:26:47;;;;;;;3.70;3.50;;;11.20;99.90;;;;;;4989111;28;20308;-62
2023/12/25 00:29:14;;;;;;;3.40;3.20;;;11.30;99.90;;;;;;4972103;28;20536;-59
2023/12/25 00:31:41;;;;;;;3.50;3.20;;;11.20;99.90;;;;;;4995850;28;20212;-58
2023/12/25 00:34:09;;;;;;;3.23;3.03;;;11.20;99.90;;;;;;4990215;28;20225;-62
2023/12/25 00:36:36;;;;;;;3.03;2.83;;;11.20;99.90;;;;;;4992098;28;20257;-60
2023/12/25 00:39:03;;;;;;;2.87;2.73;;;11.20;99.90;;;;;;4976442;28;20528;-60
2023/12/25 00:41:31;;;;;;;3.43;2.73;;;11.20;99.90;;;;;;4989018;28;20220;-60
2023/12/25 00:43:58;;;;;;;2.70;2.60;;;11.10;99.90;;;;;;4998230;28;20686;-60
2023/12/25 00:46:25;;;;;;;2.73;2.63;;;11.10;99.90;;;;;;4972305;28;20190;-60
2023/12/25 00:48:53;;;;;;;4.67;3.37;;;11.10;99.90;;;;;;4973489;28;20213;-60
2023/12/25 00:51:23;;;;;;;3.87;3.03;;;11.10;99.90;;;;;;4992456;28;20288;-59
2023/12/25 00:53:50;;;;;;;2.80;2.60;;;11.10;99.90;;;;;;4977350;28;20220;-60
2023/12/25 00:56:17;;;;;;;2.80;2.70;;;11.10;99.90;;;;;;4980373;28;20185;-60
2023/12/25 00:58:44;;;;;;;2.73;2.63;;;11.10;99.90;;;;;;4977490;28;20241;-60
2023/12/25 01:01:11;;;;;;;3.10;2.80;;;11.10;99.90;;;;;;4991602;28;20204;-59
2023/12/25 01:03:38;;;;;;;2.70;2.50;;;11.10;1.00;;;;;;4977536;28;20192;-72
2023/12/25 01:06:05;;;;;;;2.70;2.60;;;11.10;1.00;;;;;;4997231;28;20193;-60
2023/12/25 01:08:32;;;;;;;2.90;2.70;;;11.10;1.00;;;;;;4971031;28;20280;-60
2023/12/25 01:11:02;;;;;;;2.87;2.67;;;11.10;1.00;;;;;;4988874;28;20252;-61
2023/12/25 01:13:32;;;;;;;2.93;2.73;;;11.10;1.00;;;;;;4985755;28;20201;-60
2023/12/25 01:15:58;;;;;;;5.03;3.97;;;11.10;1.00;;;;;;4997757;28;20625;-60
2023/12/25 01:18:26;;;;;;;6.67;5.93;;;11.10;99.90;;;;;;4959800;28;20648;-60
2023/12/25 01:20:53;;;;;;;3.20;3.00;;;11.10;99.90;;;;;;4988400;28;20295;-64
2023/12/25 01:23:20;;;;;;;4.47;4.07;;;11.10;99.90;;;;;;4990140;28;20200;-66
2023/12/25 01:25:47;;;;;;;3.87;3.57;;;11.10;99.90;;;;;;4987561;28;20192;-64
2023/12/25 01:28:14;;;;;;;4.27;3.17;;;11.20;99.90;;;;;;4994948;28;20222;-64
2023/12/25 01:30:41;;;;;;;3.70;3.50;;;11.10;99.90;;;;;;4984107;28;20310;-65
2023/12/25 01:33:09;;;;;;;3.30;3.10;;;11.10;99.90;;;;;;4991081;28;20500;-64
2023/12/25 01:35:36;;;;;;;3.27;3.07;;;11.10;99.90;;;;;;4993480;28;20573;-64
2023/12/25 01:38:03;;;;;;;3.00;2.80;;;11.10;99.90;;;;;;4993123;28;20478;-64
2023/12/25 01:40:30;;;;;;;3.40;3.20;;;11.10;99.90;;;;;;4989528;28;20197;-60
2023/12/25 01:42:57;;;;;;;3.53;3.30;;;11.10;99.90;;;;;;4989684;28;20186;-71
2023/12/25 01:45:24;;;;;;;3.73;3.53;;;11.10;99.90;;;;;;4991303;28;20302;-63
2023/12/25 01:47:52;;;;;;;3.93;3.63;;;11.10;99.90;;;;;;4993322;28;20531;-63
2023/12/25 01:50:19;;;;;;;4.27;3.97;;;11.10;99.90;;;;;;4992584;28;20283;-63
2023/12/25 01:52:49;;;;;;;4.07;3.83;;;11.10;1.00;;;;;;4985517;28;20209;-63
2023/12/25 01:55:17;;;;;;;4.30;4.00;;;11.10;1.00;;;;;;4990983;28;20209;-61
2023/12/25 01:57:44;;;;;;;4.33;4.03;;;11.10;1.00;;;;;;4993260;28;20682;-62
2023/12/25 02:00:11;;;;;;;4.30;4.00;;;11.10;1.00;;;;;;4989763;28;20198;-61
2023/12/25 02:02:40;;;;;;;4.40;4.10;;;11.10;1.00;;;;;;4993799;28;20190;-62
2023/12/25 02:05:08;;;;;;;4.37;3.90;;;11.10;1.00;;;;;;4995853;28;20211;-62
2023/12/25 02:07:39;;;;;;;4.43;4.10;;;11.10;1.00;;;;;;4991846;28;20650;-62
2023/12/25 02:10:08;;;;;;;4.17;3.83;;;11.10;1.00;;;;;;4987328;28;20202;-61
2023/12/25 02:12:36;;;;;;;4.43;4.03;;;11.10;1.00;;;;;;4992559;28;20283;-62
2023/12/25 02:15:03;;;;;;;4.73;4.43;;;11.10;1.00;;;;;;4992572;28;20584;-63
2023/12/25 02:17:31;;;;;;;4.60;4.20;;;11.10;1.00;;;;;;4988657;28;20217;-62
2023/12/25 02:19:59;;;;;;;3.90;3.60;;;11.10;1.00;;;;;;4987669;28;20189;-60
2023/12/25 02:22:26;;;;;;;3.90;3.60;;;11.10;1.00;;;;;;4991178;28;20244;-60
2023/12/25 02:25:06;;;;;;;3.57;3.37;;;11.10;1.00;;;;;;4991612;28;20501;-61
2023/12/25 02:27:33;;;;;;;3.83;3.60;;;11.10;1.00;;;;;;4992873;28;20298;-60
2023/12/25 02:30:01;;;;;;;3.70;3.50;;;11.10;1.00;;;;;;5005870;28;20235;-65
2023/12/25 02:32:30;;;;;;;3.60;3.40;;;11.10;1.00;;;;;;4991065;28;20263;-62
2023/12/25 02:34:58;;;;;;;3.80;3.50;;;11.10;1.00;;;;;;5009889;28;20320;-62
2023/12/25 02:37:25;;;;;;;3.67;3.37;;;11.10;1.00;;;;;;4992532;28;20215;-62
2023/12/25 02:39:52;;;;;;;4.10;3.80;;;11.10;1.00;;;;;;5006826;28;20205;-62
2023/12/25 02:42:19;;;;;;;4.40;4.10;;;11.10;1.00;;;;;;4983986;28;20185;-63
2023/12/25 02:44:46;;;;;;;4.63;4.23;;;11.20;1.00;;;;;;5012226;28;20244;-62
2023/12/25 02:47:13;;;;;;;4.97;4.60;;;11.10;1.00;;;;;;4998751;28;20188;-63
2023/12/25 02:49:40;;;;;;;4.80;4.50;;;11.10;1.00;;;;;;4990779;28;20201;-63
2023/12/25 02:52:07;;;;;;;5.90;5.30;;;11.20;1.00;;;;;;5005445;28;20193;-63
2023/12/25 02:54:34;;;;;;;5.80;5.40;;;11.20;1.00;;;;;;5006668;28;20200;-63
2023/12/25 02:57:01;;;;;;;5.13;4.73;;;11.20;1.00;;;;;;4999303;28;20700;-63
2023/12/25 02:59:28;;;;;;;5.87;5.23;;;11.20;1.00;;;;;;5010741;28;20213;-63
2023/12/25 03:05:55;;;;;;;5.57;5.17;;;11.20;1.00;;;;;;5006468;28;20300;-62
2023/12/25 03:08:22;;;;;;;5.33;5.03;;;11.30;99.90;;;;;;5003418;28;20383;-63
2023/12/25 03:10:49;;;;;;;5.20;4.90;;;11.30;99.90;;;;;;5003960;28;20287;-60
2023/12/25 03:13:16;;;;;;;4.90;4.50;;;11.30;99.90;;;;;;4973068;28;20288;-61
2023/12/25 03:15:43;;;;;;;4.87;4.47;;;11.30;99.90;;;;;;4992826;28;20642;-62
2023/12/25 03:18:10;;;;;;;5.77;5.27;;;11.30;99.90;;;;;;5007829;28;20961;-62
2023/12/25 03:20:37;;;;;;;5.97;4.30;;;11.30;99.90;;;;;;4981840;28;20212;-62
2023/12/25 03:23:04;;;;;;;4.73;4.43;;;11.40;99.90;;;;;;5010648;28;20199;-62
2023/12/25 03:25:32;;;;;;;4.57;4.27;;;11.30;99.90;;;;;;4987241;28;20197;-62
2023/12/25 03:27:59;;;;;;;5.10;4.60;;;11.40;99.90;;;;;;5003791;28;20244;-62
2023/12/25 03:30:26;;;;;;;4.30;4.00;;;11.40;99.90;;;;;;5005089;28;20225;-59
2023/12/25 03:32:53;;;;;;;4.70;4.27;;;11.40;99.90;;;;;;4998062;28;20330;-65
2023/12/25 03:35:20;;;;;;;4.77;4.47;;;11.40;99.90;;;;;;4994616;28;20205;-60
2023/12/25 03:37:47;;;;;;;4.60;4.30;;;11.50;99.90;;;;;;4988161;28;20226;-60
2023/12/25 03:40:14;;;;;;;4.60;4.30;;;11.50;99.90;;;;;;4990894;28;20247;-60
2023/12/25 03:42:41;;;;;;;4.47;4.17;;;11.50;99.90;;;;;;4994715;28;20540;-60
2023/12/25 03:45:08;;;;;;;4.63;4.30;;;11.40;99.90;;;;;;4989424;28;20198;-60
2023/12/25 03:47:35;;;;;;;5.17;4.40;;;11.40;99.90;;;;;;4990853;28;20563;-60
2023/12/25 03:50:03;;;;;;;4.90;4.60;;;11.40;99.90;;;;;;4972884;28;20269;-60
2023/12/25 03:52:29;;;;;;;5.37;4.93;;;11.40;99.90;;;;;;5010729;28;20203;-60
2023/12/25 03:54:56;;;;;;;5.27;4.97;;;11.40;99.90;;;;;;5007490;28;20230;-59
2023/12/25 03:57:23;;;;;;;5.50;5.20;;;11.40;99.90;;;;;;4998616;28;20290;-60
2023/12/25 03:59:50;;;;;;;5.13;4.80;;;11.50;99.90;;;;;;5009699;28;20609;-59
2023/12/25 04:02:18;;;;;;;4.97;4.67;;;11.50;99.90;;;;;;4999854;28;20547;-59
2023/12/25 04:04:45;;;;;;;4.70;4.40;;;11.40;99.90;;;;;;5009222;28;20272;-61
2023/12/25 04:07:12;;;;;;;4.57;4.17;;;11.40;99.90;;;;;;5003543;28;20197;-59
2023/12/25 04:09:39;;;;;;;4.53;4.33;;;11.40;99.90;;;;;;5010522;28;20203;-59
2023/12/25 04:12:06;;;;;;;5.67;5.03;;;11.50;99.90;;;;;;5007588;28;20291;-59
2023/12/25 04:14:38;;;;;;;5.10;4.70;;;11.40;99.90;;;;;;4994062;28;20209;-61
2023/12/25 04:17:05;;;;;;;5.07;4.70;;;11.40;99.90;;;;;;5005843;28;20193;-60
2023/12/25 04:19:33;;;;;;;5.20;4.90;;;11.40;99.90;;;;;;4990358;28;20603;-59
2023/12/25 04:22:00;;;;;;;4.53;4.23;;;11.40;99.90;;;;;;4990809;28;20205;-60
2023/12/25 04:24:27;;;;;;;4.90;4.60;;;11.40;99.90;;;;;;4998897;28;20208;-59
2023/12/25 04:26:54;;;;;;;5.07;4.77;;;11.40;99.90;;;;;;5020036;28;20232;-60
2023/12/25 04:29:21;;;;;;;5.40;5.00;;;11.30;99.90;;;;;;4991870;28;20257;-60
2023/12/25 04:31:49;;;;;;;5.30;5.00;;;11.50;99.90;;;;;;4994077;28;20198;-60
2023/12/25 04:34:18;;;;;;;5.67;5.17;;;11.40;99.90;;;;;;4993158;28;20190;-65
2023/12/25 04:36:45;;;;;;;6.10;5.63;;;11.50;99.90;;;;;;4991078;28;20285;-60
2023/12/25 04:39:12;;;;;;;6.07;5.60;;;11.50;99.90;;;;;;4987829;28;20694;-60
2023/12/25 04:41:39;;;;;;;6.40;5.97;;;11.50;99.90;;;;;;4985259;28;20202;-60
2023/12/25 04:44:07;;;;;;;6.70;6.20;;;11.50;99.90;;;;;;4966835;28;20202;-59
2023/12/25 04:46:35;;;;;;;7.20;6.70;;;11.60;99.90;;;;;;4969887;28;20233;-60
2023/12/25 04:49:02;;;;;;;7.20;6.80;;;11.60;99.90;;;;;;4985454;28;20252;-60
2023/12/25 04:51:30;;;;;;;6.87;6.53;;;11.70;99.90;;;;;;4988270;28;20206;-62
2023/12/25 04:53:57;;;;;;;7.30;6.70;;;11.70;99.90;;;;;;4987601;28;20654;-63
2023/12/25 04:56:26;;;;;;;7.20;6.73;;;11.80;99.90;;;;;;4987907;28;20205;-63
2023/12/25 04:58:53;;;;;;;7.37;6.97;;;11.70;99.90;;;;;;4987482;28;20225;-62
2023/12/25 05:01:19;;;;;;;7.50;6.90;;;11.60;99.90;;;;;;4989377;28;20276;-63
2023/12/25 05:03:46;;;;;;;8.07;7.37;;;11.70;99.90;;;;;;4985596;28;20276;-61
2023/12/25 05:06:15;;;;;;;6.90;6.47;;;11.60;99.90;;;;;;4990065;28;20820;-61
2023/12/25 05:08:42;;;;;;;6.83;6.50;;;11.70;99.90;;;;;;4988670;28;20332;-62
2023/12/25 05:11:09;;;;;;;7.10;6.70;;;11.70;99.90;;;;;;4993866;28;20216;-61
2023/12/25 05:13:36;;;;;;;7.20;6.80;;;11.80;99.90;;;;;;4992047;28;20212;-62
2023/12/25 05:16:03;;;;;;;7.20;6.80;;;11.70;99.90;;;;;;4993183;28;20594;-62
2023/12/25 05:18:30;;;;;;;7.20;6.80;;;11.70;99.90;;;;;;4985014;28;20214;-62
2023/12/25 05:20:59;;;;;;;7.43;7.03;;;11.80;99.90;;;;;;4990435;28;20649;-62
2023/12/25 05:23:26;;;;;;;8.10;7.60;;;11.80;99.90;;;;;;4989749;28;20192;-62
2023/12/25 05:25:53;;;;;;;8.20;7.73;;;11.90;99.90;;;;;;5000630;28;20201;-62
2023/12/25 05:28:20;;;;;;;7.90;7.50;;;11.90;99.90;;;;;;4991537;28;20233;-62
2023/12/25 05:30:47;;;;;;;7.60;7.20;;;11.80;99.90;;;;;;5008638;28;20233;-62
2023/12/25 05:33:14;;;;;;;8.37;7.87;;;11.80;99.90;;;;;;5007058;28;20225;-63
2023/12/25 05:35:41;;;;;;;7.40;6.97;;;11.70;99.90;;;;;;5004140;28;20185;-61
2023/12/25 05:38:08;;;;;;;7.40;7.00;;;11.80;99.90;;;;;;5012211;28;20204;-62
2023/12/25 05:40:35;;;;;;;7.53;7.13;;;11.80;99.90;;;;;;5008925;28;20287;-62
2023/12/25 05:43:03;;;;;;;7.50;7.10;;;11.80;99.90;;;;;;5006192;28;20641;-62
2023/12/25 05:45:30;;;;;;;7.40;6.87;;;11.80;99.90;;;;;;5010950;28;20197;-62
2023/12/25 05:47:57;;;;;;;7.30;6.90;;;11.70;99.90;;;;;;4992373;28;20228;-62
2023/12/25 05:50:24;;;;;;;7.80;7.30;;;11.70;99.90;;;;;;5010259;28;20766;-62
2023/12/25 05:52:51;;;;;;;6.87;6.30;;;11.70;99.90;;;;;;5000611;28;20711;-62
2023/12/25 05:55:18;;;;;;;6.50;6.10;;;11.60;99.90;;;;;;4990980;28;20201;-62
2023/12/25 05:57:45;;;;;;;5.70;5.40;;;11.60;99.90;;;;;;5014161;28;20288;-62
2023/12/25 06:00:13;;;;;;;6.40;6.00;;;11.50;99.90;;;;;;4988389;28;20287;-62
2023/12/25 06:02:40;;;;;;;6.70;6.30;;;11.50;99.90;;;;;;5008746;28;20208;-62
2023/12/25 06:05:07;;;;;;;5.40;5.00;;;11.30;99.90;;;;;;4997355;28;20195;-65
2023/12/25 06:07:34;;;;;;;5.53;5.10;;;11.30;99.90;;;;;;5011223;28;20287;-62
2023/12/25 06:10:01;;;;;;;5.23;4.93;;;11.20;99.90;;;;;;5006195;28;20189;-63
2023/12/25 06:12:28;;;;;;;5.47;4.97;;;11.20;99.90;;;;;;4988814;28;20226;-62
2023/12/25 06:14:55;;;;;;;5.47;5.17;;;11.10;1.00;;;;;;4990455;28;20260;-62
2023/12/25 06:17:22;;;;;;;6.63;6.13;;;11.10;1.00;;;;;;5012900;28;20192;-62
2023/12/25 06:19:49;;;;;;;6.33;5.93;;;11.10;1.00;;;;;;5013052;28;20787;-62
2023/12/25 06:22:16;;;;;;;6.70;6.20;;;11.10;1.00;;;;;;4995970;28;20224;-66
2023/12/25 06:24:43;;;;;;;6.90;6.27;;;11.00;1.00;;;;;;5011230;28;20673;-63
2023/12/25 06:27:10;;;;;;;8.20;7.40;;;11.00;1.00;;;;;;5003346;28;20216;-63
2023/12/25 06:29:38;;;;;;;8.43;7.67;;;11.00;1.00;;;;;;5014788;28;20239;-62
2023/12/25 06:32:05;;;;;;;8.60;7.87;;;11.00;1.00;;;;;;5014070;28;20197;-62
2023/12/25 06:34:32;;;;;;;7.60;7.00;;;11.00;1.00;;;;;;5015587;28;20212;-63
2023/12/25 06:36:59;;;;;;;10.57;8.50;;;11.00;1.00;;;;;;5004364;28;20200;-62
2023/12/25 06:39:26;;;;;;;8.97;8.17;;;11.10;1.00;;;;;;4998476;28;20574;-62
2023/12/25 06:41:53;;;;;;;7.03;6.53;;;11.00;1.00;;;;;;5017406;28;20638;-62
2023/12/25 06:44:20;;;;;;;6.30;5.83;;;11.10;1.00;;;;;;5012593;28;20194;-62
2023/12/25 06:46:47;;;;;;;6.10;5.70;;;11.10;1.00;;;;;;5016112;28;20193;-63
2023/12/25 06:49:14;;;;;;;5.60;5.30;;;11.10;1.00;;;;;;4996555;28;20197;-63
2023/12/25 06:51:43;;;;;;;5.10;4.80;;;11.10;1.00;;;;;;5010034;28;20208;-63
2023/12/25 06:54:11;;;;;;;5.20;4.80;;;11.20;1.00;;;;;;5022131;28;20636;-62
2023/12/25 06:56:38;;;;;;;4.90;4.60;;;11.20;1.00;;;;;;5009833;28;20193;-62
2023/12/25 06:59:06;;;;;;;4.97;4.67;;;11.20;1.00;;;;;;4998241;28;20224;-62
2023/12/25 07:01:33;;;;;;;4.73;4.43;;;11.10;1.00;;;;;;5017333;28;20196;-63
2023/12/25 07:04:00;;;;;;;4.63;4.43;;;11.10;1.00;;;;;;5018815;28;20672;-63
2023/12/25 07:06:27;;;;;;;4.73;4.43;;;11.10;1.00;;;;;;5005278;28;20541;-62
2023/12/25 07:08:54;;;;;;;4.50;4.30;;;11.10;1.00;;;;;;5003285;28;20196;-63
2023/12/25 07:11:21;;;;;;;4.43;4.20;;;11.10;1.00;;;;;;5019953;28;20262;-63
2023/12/25 07:13:48;;;;;;;4.87;4.67;;;11.10;1.00;;;;;;5020005;28;20192;-63
2023/12/25 07:16:25;;;;;;;5.53;5.00;;;11.00;1.00;;;;;;4994803;28;20299;-62
2023/12/25 07:18:53;;;;;;;4.83;4.63;;;11.00;1.00;;;;;;4996437;28;20223;-62
2023/12/25 07:21:21;;;;;;;5.03;4.67;;;11.00;1.00;;;;;;4995652;28;20601;-63
2023/12/25 07:23:48;;;;;;;5.77;5.37;;;11.00;1.00;;;;;;5013038;28;20540;-63
2023/12/25 07:26:18;;;;;;;5.20;4.90;;;10.90;1.00;;;;;;5015484;28;20557;-62
2023/12/25 07:28:46;;;;;;;5.10;4.80;;;10.90;1.00;;;;;;5012170;28;20224;-63
2023/12/25 07:31:15;;;;;;;5.10;4.80;;;10.90;1.00;;;;;;4985547;28;20220;-67
2023/12/25 07:33:42;;;;;;;5.30;5.00;;;10.90;1.00;;;;;;4995565;28;20193;-63
2023/12/25 07:36:09;;;;;;;5.10;4.80;;;10.90;1.00;;;;;;5007661;28;20620;-63
2023/12/25 07:38:37;;;;;;;5.40;5.10;;;10.90;1.00;;;;;;4996566;28;20895;-63
2023/12/25 07:41:09;;;;;;;5.10;4.80;;;10.90;1.00;;;;;;5002285;28;20641;-63
2023/12/25 07:43:36;;;;;;;4.97;4.67;;;10.90;1.00;;;;;;5009030;28;20243;-63
2023/12/25 07:46:07;;;;;;;4.70;4.40;;;10.90;1.00;;;;;;4997928;28;20211;-63
2023/12/25 07:48:35;;;;;;;4.90;4.60;;;10.90;1.00;;;;;;5002083;28;20195;-63
2023/12/25 07:51:03;;;;;;;4.93;4.63;;;10.90;1.00;;;;;;5012618;28;20732;-63
2023/12/25 07:53:30;;;;;;;4.50;4.30;;;10.90;1.00;;;;;;5015261;28;20579;-63
2023/12/25 07:55:57;;;;;;;4.70;4.50;;;10.90;1.00;;;;;;4998540;28;20215;-63
2023/12/25 07:58:24;;;;;;;5.43;5.07;;;11.00;1.00;;;;;;4997037;28;20667;-62
2023/12/25 08:00:51;;;;;;;9.50;8.80;;;10.90;1.00;;;;;;4999820;28;20231;-72
2023/12/25 08:03:18;;;;;;;5.60;5.20;;;10.90;1.00;;;;;;5014109;28;20188;-62
2023/12/25 08:05:45;;;;;;;5.63;5.33;;;10.90;1.00;;;;;;5018250;28;20185;-63
2023/12/25 08:08:12;;;;;;;6.27;5.83;;;10.90;1.00;;;;;;5012760;28;20242;-63
2023/12/25 08:10:39;;;;;;;5.47;5.17;;;10.90;1.00;;;;;;5011588;28;20200;-66
2023/12/25 08:13:06;;;;;;;5.43;5.13;;;10.90;1.00;;;;;;5012306;28;20238;-72
2023/12/25 08:15:33;;;;;;;5.20;5.00;;;10.90;1.00;;;;;;5005447;28;20196;-62
2023/12/25 08:18:00;;;;;;;5.57;5.27;;;10.90;1.00;;;;;;4989927;28;20209;-63
2023/12/25 08:20:28;;;;;;;5.40;5.10;;;10.90;1.00;;;;;;5011741;28;20221;-60
2023/12/25 08:22:55;;;;;;;5.67;5.37;;;10.90;1.00;;;;;;5019232;28;20528;-59
2023/12/25 08:25:22;;;;;;;5.60;5.30;;;10.80;1.00;;;;;;4986054;28;20572;-60
2023/12/25 08:27:49;;;;;;;5.50;5.20;;;10.80;1.00;;;;;;5005861;28;20601;-59
2023/12/25 08:30:16;;;;;;;5.37;5.07;;;10.80;1.00;;;;;;5006617;28;20238;-63
2023/12/25 08:32:43;;;;;;;5.30;5.00;;;10.80;1.00;;;;;;5002378;28;20507;-63
2023/12/25 08:35:10;;;;;;;5.77;5.17;;;10.80;1.00;;;;;;4993571;28;20224;-64
2023/12/25 08:37:37;;;;;;;5.43;5.13;;;10.70;1.00;;;;;;4999705;28;20216;-64
2023/12/25 08:40:05;;;;;;;5.40;5.00;;;10.70;1.00;;;;;;5003378;28;20664;-76
2023/12/25 08:42:32;;;;;;;5.57;5.27;;;10.70;1.00;;;;;;4999791;28;20197;-63
2023/12/25 08:44:59;;;;;;;5.77;5.30;;;10.60;1.00;;;;;;4998144;28;20197;-63
2023/12/25 08:47:26;;;;;;;5.87;5.57;;;10.60;1.00;;;;;;4993982;28;20204;-64
2023/12/25 08:49:54;;;;;;;5.80;5.50;;;10.50;1.00;;;;;;5020171;28;20204;-63
2023/12/25 08:52:21;;;;;;;6.60;6.20;;;10.50;1.00;;;;;;4994693;28;20220;-66
2023/12/25 08:54:48;;;;;;;6.67;6.27;;;10.50;1.00;;;;;;5002471;28;20593;-63
2023/12/25 08:57:15;;;;;;;6.17;5.73;;;10.50;1.00;;;;;;5014864;28;20207;-63
2023/12/25 08:59:43;;;;;;;6.47;6.17;;;10.40;1.00;;;;;;4982374;28;20714;-63
2023/12/25 09:02:10;;;;;;;6.50;6.10;;;10.40;1.00;;;;;;4976490;28;20693;-63
2023/12/25 09:04:37;;;;;;;6.70;6.30;;;10.40;1.00;;;;;;4982433;28;20800;-63
2023/12/25 09:07:04;;;;;;;6.03;5.73;;;10.40;1.00;;;;;;5012841;28;20200;-64
2023/12/25 09:09:31;;;;;;;7.07;6.47;;;10.40;1.00;;;;;;5017175;28;20941;-64
2023/12/25 09:11:58;;;;;;;6.70;6.10;;;10.30;1.00;;;;;;5006262;28;20295;-66
2023/12/25 09:14:25;;;;;;;6.97;6.27;;;10.30;1.00;;;;;;5014865;28;20276;-64
2023/12/25 09:16:52;;;;;;;6.57;6.27;;;10.30;1.00;;;;;;5004496;28;20266;-63
2023/12/25 09:19:19;;;;;;;6.93;6.50;;;10.30;1.00;;;;;;5003437;28;20232;-64
2023/12/25 09:21:47;;;;;;;6.70;6.40;;;10.20;1.00;;;;;;5009529;28;20192;-69
2023/12/25 09:24:14;;;;;;;7.07;6.60;;;10.20;1.00;;;;;;5013371;28;20193;-63
2023/12/25 09:26:41;;;;;;;7.50;7.10;;;10.20;1.00;;;;;;4994561;28;20200;-63
2023/12/25 09:29:10;;;;;;;7.97;7.47;;;10.30;1.00;;;;;;4986957;28;20201;-63
2023/12/25 09:31:37;;;;;;;8.03;7.43;;;10.30;1.00;;;;;;5001209;28;20204;-64
2023/12/25 09:34:04;;;;;;;7.00;6.40;;;10.30;1.00;;;;;;5001189;28;20293;-64
2023/12/25 09:36:31;;;;;;;6.90;6.50;;;10.30;1.00;;;;;;4995005;28;20294;-63
2023/12/25 09:38:58;;;;;;;7.10;6.70;;;10.20;1.00;;;;;;4981062;28;20208;-63
2023/12/25 09:41:32;;;;;;;6.60;6.30;;;10.20;1.00;;;;;;4980604;28;20647;-61
2023/12/25 09:44:00;;;;;;;7.30;6.70;;;10.20;1.00;;;;;;4995218;28;20201;-60
2023/12/25 09:46:31;;;;;;;6.63;6.33;;;10.20;1.00;;;;;;4974009;28;20216;-60
2023/12/25 09:48:58;;;;;;;6.50;6.00;;;10.20;1.00;;;;;;4983937;28;20197;-61
2023/12/25 09:51:33;;;;;;;6.87;6.47;;;10.20;1.00;;;;;;4978471;28;20197;-61
2023/12/25 09:54:01;;;;;;;7.73;7.23;;;10.20;1.00;;;;;;4995385;28;20194;-60
2023/12/25 09:56:33;;;;;;;8.87;8.20;;;10.20;1.00;;;;;;4971670;28;22647;-60
2023/12/25 09:59:00;;;;;;;9.90;9.00;;;10.20;1.00;;;;;;4983552;28;20210;-60
2023/12/25 10:01:28;;;;;;;8.23;7.40;;;10.20;1.00;;;;;;4989014;28;20536;-60
2023/12/25 10:03:55;;;;;;;6.90;6.50;;;10.20;1.00;;;;;;4972211;28;20256;-60
2023/12/25 10:06:22;;;;;;;6.77;6.33;;;10.20;1.00;;;;;;4982892;28;20189;-60
2023/12/25 10:08:50;;;;;;;8.83;8.23;;;10.20;1.00;;;;;;4972154;28;20284;-60
2023/12/25 10:11:17;;;;;;;7.83;7.13;;;10.20;1.00;;;;;;4990665;28;20578;-61
2023/12/25 10:13:44;;;;;;;6.47;6.17;;;10.20;1.00;;;;;;4988085;28;20198;-60
2023/12/25 10:16:12;;;;;;;7.33;6.60;;;10.20;1.00;;;;;;4989912;28;20195;-61
2023/12/25 10:18:39;;;;;;;6.90;6.50;;;10.20;1.00;;;;;;4994285;28;20204;-61
2023/12/25 10:21:09;;;;;;;8.90;7.40;;;10.20;1.00;;;;;;4972103;28;20330;-61
2023/12/25 10:23:37;;;;;;;9.03;8.43;;;10.20;1.00;;;;;;4971307;28;20268;-60
2023/12/25 10:26:04;;;;;;;9.00;8.40;;;10.20;1.00;;;;;;4973570;28;20193;-60
2023/12/25 10:28:33;;;;;;;9.97;9.27;;;10.20;1.00;;;;;;4978938;28;20335;-60
2023/12/25 10:31:05;;;;;;;8.47;7.70;;;10.20;1.00;;;;;;5012480;28;20240;-61
2023/12/25 10:33:34;;;;;;;9.40;8.17;;;10.20;99.90;;;;;;4990832;28;20194;-60
2023/12/25 10:36:03;;;;;;;9.17;8.40;;;10.30;99.90;;;;;;5001908;28;20211;-61
2023/12/25 10:38:34;;;;;;;8.27;7.67;;;10.30;1.00;;;;;;4995598;28;20789;-60
2023/12/25 10:41:28;;;;;;;9.47;8.57;;;10.40;99.90;;;;;;5020762;28;20287;-61
2023/12/25 10:43:57;;;;;;;7.50;7.00;;;10.40;99.90;;;;;;4985958;28;20207;-60
2023/12/25 10:46:25;;;;;;;7.60;7.10;;;10.40;99.90;;;;;;4980449;28;20612;-60
2023/12/25 10:48:54;;;;;;;9.13;8.27;;;10.30;99.90;;;;;;5005838;28;20200;-60
2023/12/25 10:51:27;;;;;;;6.80;6.30;;;10.30;99.90;;;;;;4997273;28;20581;-63
2023/12/25 10:54:01;;;;;;;9.27;7.17;;;10.30;99.90;;;;;;5020031;28;20192;-63
2023/12/25 10:56:31;;;;;;;7.93;7.23;;;10.30;99.90;;;;;;4995778;28;20193;-63
2023/12/25 10:59:12;;;;;;;8.20;7.40;;;10.30;1.00;;;;;;5010728;28;20219;-63
2023/12/25 11:01:46;;;;;;;7.17;6.70;;;10.30;1.00;;;;;;4990038;28;20217;-62
2023/12/25 11:04:17;;;;;;;8.20;7.43;;;10.30;99.90;;;;;;5013014;28;20189;-63
2023/12/25 11:06:46;;;;;;;12.93;10.40;;;10.30;99.90;;;;;;4977141;28;20587;-64
2023/12/25 11:09:25;;;;;;;8.77;7.87;;;10.20;99.90;;;;;;5012492;28;20285;-63
2023/12/25 11:11:53;;;;;;;10.40;9.33;;;10.20;99.90;;;;;;5015990;28;20192;-63
2023/12/25 11:14:21;;;;;;;6.60;6.07;;;10.10;99.90;;;;;;5014631;28;20193;-63
2023/12/25 11:16:48;;;;;;;8.30;7.50;;;10.10;99.90;;;;;;5011756;28;20193;-63
2023/12/25 11:19:16;;;;;;;9.37;7.87;;;10.20;99.90;;;;;;4989843;28;20197;-67
2023/12/25 11:21:43;;;;;;;6.80;6.30;;;10.20;99.90;;;;;;4992837;28;20208;-64
2023/12/25 11:24:12;;;;;;;7.17;6.47;;;10.20;99.90;;;;;;4997552;28;20199;-66
2023/12/25 11:26:42;;;;;;;6.50;6.10;;;10.30;99.90;;;;;;4990226;28;20376;-63
2023/12/25 11:29:12;;;;;;;7.13;6.43;;;10.20;99.90;;;;;;5004541;28;20192;-63
2023/12/25 11:31:44;;;;;;;6.07;5.67;;;10.20;99.90;;;;;;5000949;28;20213;-65
2023/12/25 11:34:41;;;;;;;7.53;7.03;;;10.20;99.90;;;;;;4998651;28;20839;-63
2023/12/25 11:37:20;;;;;;;7.30;6.57;;;10.30;99.90;;;;;;4993716;28;20398;-63
2023/12/25 11:40:05;;;;;;;7.23;6.37;;;10.20;99.90;;;;;;4990346;28;20214;-63
2023/12/25 11:42:34;;;;;;;7.07;6.53;;;10.20;99.90;;;;;;4997001;28;20700;-63
2023/12/25 11:45:04;;;;;;;7.37;6.87;;;10.20;99.90;;;;;;4988234;28;20571;-63
2023/12/25 11:47:44;;;;;;;7.23;6.50;;;10.20;99.90;;;;;;5009447;28;20192;-63
2023/12/25 11:50:14;;;;;;;7.13;6.57;;;10.20;99.90;;;;;;5005734;28;20216;-60
2023/12/25 11:52:53;;;;;;;7.77;6.90;;;10.20;99.90;;;;;;5013937;28;20208;-61
2023/12/25 11:55:23;;;;;;;6.67;6.07;;;10.20;99.90;;;;;;5005402;28;20205;-60
2023/12/25 11:57:51;;;;;;;6.83;6.33;;;10.20;99.90;;;;;;5009264;28;20209;-60
2023/12/25 12:00:21;;;;;;;6.80;6.20;;;10.10;99.90;;;;;;4991079;28;20552;-63
2023/12/25 12:02:49;;;;;;;6.97;6.10;;;10.10;99.90;;;;;;4994438;28;20587;-63
2023/12/25 12:05:16;;;;;;;6.40;5.90;;;10.20;1.00;;;;;;5006214;28;20188;-65
2023/12/25 12:07:43;;;;;;;6.23;5.83;;;10.10;99.90;;;;;;5013389;28;20207;-63
2023/12/25 12:10:12;;;;;;;6.80;6.40;;;10.10;1.00;;;;;;4998165;28;20209;-63
2023/12/25 12:12:40;;;;;;;7.57;6.97;;;10.20;1.00;;;;;;5007018;28;20196;-63
2023/12/25 12:15:08;;;;;;;7.00;6.37;;;10.20;1.00;;;;;;4987155;28;20205;-63
2023/12/25 12:17:38;;;;;;;6.20;5.80;;;10.20;1.00;;;;;;4983697;28;20207;-63
2023/12/25 12:20:06;;;;;;;6.20;5.70;;;10.20;1.00;;;;;;5008638;28;20296;-63
2023/12/25 12:22:34;;;;;;;6.10;5.50;;;10.20;1.00;;;;;;5015025;28;20691;-63
2023/12/25 12:25:20;;;;;;;5.80;5.40;;;10.20;1.00;;;;;;5012524;28;20265;-63
2023/12/25 12:27:47;;;;;;;6.33;5.77;;;10.20;1.00;;;;;;5006406;28;20213;-62
2023/12/25 12:30:16;;;;;;;5.80;5.50;;;10.20;1.00;;;;;;5013350;28;20228;-63
2023/12/25 12:32:44;;;;;;;6.50;6.00;;;10.10;1.00;;;;;;4996016;28;20208;-63
2023/12/25 12:35:11;;;;;;;7.10;6.50;;;10.10;1.00;;;;;;5008493;28;20196;-63
2023/12/25 12:37:38;;;;;;;6.20;5.90;;;10.10;1.00;;;;;;5015040;28;20279;-63
2023/12/25 12:40:06;;;;;;;6.30;5.90;;;10.10;1.00;;;;;;5003684;28;20233;-63
2023/12/25 12:42:34;;;;;;;6.33;5.93;;;10.10;1.00;;;;;;5013529;28;20196;-63
2023/12/25 12:45:01;;;;;;;6.33;5.93;;;10.10;1.00;;;;;;5011885;28;20204;-63
2023/12/25 12:47:30;;;;;;;6.60;6.20;;;10.10;1.00;;;;;;4993559;28;20193;-63
2023/12/25 12:49:58;;;;;;;6.90;6.50;;;10.10;1.00;;;;;;5011702;28;20676;-63
2023/12/25 12:52:25;;;;;;;7.10;6.60;;;10.10;1.00;;;;;;5016635;28;20208;-64
2023/12/25 12:54:52;;;;;;;6.37;6.07;;;10.10;1.00;;;;;;4992333;28;20211;-63
2023/12/25 12:57:21;;;;;;;7.00;6.50;;;10.10;1.00;;;;;;5015209;28;20185;-64
2023/12/25 12:59:49;;;;;;;6.73;6.43;;;10.10;1.00;;;;;;5015402;28;20200;-68
2023/12/25 13:02:25;;;;;;;7.10;6.60;;;10.10;1.00;;;;;;4999799;28;20617;-68